Jupiter Spirit — A8ZC2 — position and weather

sailwx.info

Track history (hours):
 
Tides and Currents Weather Stations Pressure Air Temp Water Temp Dewpoint Dewpoint Depression Visibility Wind Speed Wind Dir Waves Ship Positions

Jupiter Spirit

Last reported at 2015-Aug-24 08:23 UTC. Time now 2015-Sep-04 05:54 UTC.
Position N 34°48' E 139°35'.
Warning: this ship's position is 10 days out of date.

Length 183 m; draft 8.9 m.

Type: Cargo ship. MMSI: 636015173.

Date/timePositionNaut miles runAvg speedWind from/ knotsBaromVisibWave heightAir tempDewpointWater temp
2015-Aug-24 08:23N 34°48' E 139°35'1214.5
2015-Aug-24 07:33N 34°59' E 139°39'1414.3
2015-Aug-24 06:33N 35°12' E 139°46'1312.5
2015-Aug-24 05:33N 35°24' E 139°42'3 2.8
2015-Aug-24 04:28N 35°27' E 139°41'0 0.0
2015-Aug-24 03:31N 35°27' E 139°41'0 0.0
2015-Aug-24 02:31N 35°27' E 139°41'0 0.0
2015-Aug-24 01:31N 35°27' E 139°41'0 0.0
2015-Aug-24 00:31N 35°27' E 139°41'0 0.0
2015-Aug-23 23:31N 35°27' E 139°41'0 0.0
2015-Aug-23 22:31N 35°27' E 139°41'0 0.0
2015-Aug-23 21:31N 35°27' E 139°41'0 0.0
2015-Aug-23 20:31N 35°27' E 139°41'0 0.0
2015-Aug-23 19:31N 35°27' E 139°41'0 0.0
2015-Aug-23 18:31N 35°27' E 139°41'0 0.0
2015-Aug-23 17:31N 35°27' E 139°41'0 0.0
2015-Aug-23 16:31N 35°27' E 139°41'0 0.0
2015-Aug-23 15:31N 35°27' E 139°41'0 0.0
2015-Aug-23 14:31N 35°27' E 139°41'0 0.0
2015-Aug-23 13:31N 35°27' E 139°41'0 0.0
2015-Aug-23 12:31N 35°27' E 139°41'0 0.0
2015-Aug-23 11:31N 35°27' E 139°41'0 0.0
2015-Aug-23 10:31N 35°27' E 139°41'0 0.0
2015-Aug-23 09:31N 35°27' E 139°41'0 0.0
2015-Aug-23 08:31N 35°27' E 139°41'0 0.0
2015-Aug-23 07:31N 35°27' E 139°41'0 0.0
2015-Aug-23 06:31N 35°27' E 139°41'0 0.0
2015-Aug-23 05:31N 35°27' E 139°41'0 0.0
2015-Aug-23 04:28N 35°27' E 139°41'0 0.0
2015-Aug-23 03:31N 35°27' E 139°41'0 0.0
2015-Aug-23 02:31N 35°27' E 139°41'0 0.0
2015-Aug-23 01:31N 35°27' E 139°41'0 0.0
2015-Aug-23 00:31N 35°27' E 139°41'0 0.0
2015-Aug-22 23:31N 35°27' E 139°41'0 0.0
2015-Aug-22 22:31N 35°27' E 139°41'2 2.2
2015-Aug-22 21:33N 35°26' E 139°43'1110.6
2015-Aug-22 20:33N 35°16' E 139°47'1010.0
2015-Aug-22 19:33N 35°06' E 139°45'9 8.7
2015-Aug-22 18:33N 34°58' E 139°42'1211.6
2015-Aug-22 17:33N 34°47' E 139°35'1313.3
2015-Aug-22 16:33N 34°37' E 139°25'  
2015-Aug-20 09:33N 34°01' E 134°58'1212.0
2015-Aug-20 08:32N 34°13' E 134°57'1716.9
2015-Aug-20 07:33N 34°28' E 135°07'1615.7
2015-Aug-20 06:33N 34°41' E 135°18'1 1.3
2015-Aug-20 05:26N 34°42' E 135°17'0 0.0
2015-Aug-20 04:32N 34°42' E 135°17'0 0.0
2015-Aug-20 03:32N 34°42' E 135°17'0 0.0
2015-Aug-20 02:32N 34°42' E 135°17'0 0.0
2015-Aug-20 01:32N 34°42' E 135°17'0 0.0
2015-Aug-20 00:32N 34°42' E 135°17'0 0.0
2015-Aug-19 23:32N 34°42' E 135°17'0 0.0
2015-Aug-19 22:26N 34°42' E 135°17'0 0.0
2015-Aug-19 21:26N 34°42' E 135°17'0 0.0
2015-Aug-19 20:26N 34°42' E 135°17'0 0.0
2015-Aug-19 19:32N 34°42' E 135°17'0 0.0
2015-Aug-19 18:32N 34°42' E 135°17'0 0.0
2015-Aug-19 17:32N 34°42' E 135°17'0 0.0
2015-Aug-19 16:32N 34°42' E 135°17'0 0.0
2015-Aug-19 15:32N 34°42' E 135°17'0 0.0
2015-Aug-19 14:32N 34°42' E 135°17'0 0.0
2015-Aug-19 13:32N 34°42' E 135°17'0 0.0
2015-Aug-19 12:32N 34°42' E 135°17'0 0.0
2015-Aug-19 11:32N 34°42' E 135°17'0 0.0
2015-Aug-19 10:32N 34°42' E 135°17'0 0.0
2015-Aug-19 09:20N 34°42' E 135°17'0 0.0
2015-Aug-19 08:32N 34°42' E 135°17'0 0.0
2015-Aug-19 07:26N 34°42' E 135°17'0 0.0
2015-Aug-19 06:32N 34°42' E 135°17'0 0.0
2015-Aug-19 05:32N 34°42' E 135°17'0 0.0
2015-Aug-19 04:32N 34°42' E 135°17'0 0.0
2015-Aug-19 03:26N 34°42' E 135°17'4 0.1
2015-Aug-17 18:18N 34°38' E 135°18'0 0.0
2015-Aug-17 17:30N 34°38' E 135°18'0 0.0
2015-Aug-17 16:30N 34°38' E 135°18'0 0.0
2015-Aug-17 15:30N 34°38' E 135°18'0 0.0
2015-Aug-17 14:30N 34°38' E 135°18'0 0.0
2015-Aug-17 13:30N 34°38' E 135°18'0 0.0
2015-Aug-17 12:30N 34°38' E 135°18'0 0.1
2015-Aug-17 11:30N 34°38' E 135°18'0 0.0
2015-Aug-17 10:30N 34°38' E 135°18'0 0.0
2015-Aug-17 09:12N 34°38' E 135°18'0 0.1
2015-Aug-17 08:18N 34°38' E 135°18'0 0.1
2015-Aug-17 07:30N 34°38' E 135°18'0 0.1
2015-Aug-17 06:24N 34°38' E 135°18'0 0.1
2015-Aug-17 05:12N 34°38' E 135°18'0 0.0
2015-Aug-17 04:30N 34°38' E 135°18'0 0.0
2015-Aug-17 03:24N 34°38' E 135°18'0 0.0
2015-Aug-17 02:30N 34°38' E 135°18'0 0.0
2015-Aug-17 01:30N 34°38' E 135°18'2 2.4
2015-Aug-17 00:33N 34°36' E 135°17'2317.2
2015-Aug-16 23:12N 34°18' E 134°59'913.7
2015-Aug-16 22:33N 34°09' E 134°60'1311.8
2015-Aug-16 21:29N 33°56' E 134°60'  
Track history (hours):
 
Tides and Currents Weather Stations Pressure Air Temp Water Temp Dewpoint Dewpoint Depression Visibility Wind Speed Wind Dir Waves Ship Positions

Jupiter Spirit

Last reported at 2015-Aug-24 08:23 UTC. Time now 2015-Sep-04 05:54 UTC.
Position N 34°48' E 139°35'.
Warning: this ship's position is 10 days out of date.

Length 183 m; draft 8.9 m.

Type: Cargo ship. MMSI: 636015173.

Date/timePositionNaut miles runAvg speedWind from/ knotsBaromVisibWave heightAir tempDewpointWater temp
2015-Aug-24 08:23N 34°48' E 139°35'1214.5
2015-Aug-24 07:33N 34°59' E 139°39'1414.3
2015-Aug-24 06:33N 35°12' E 139°46'1312.5
2015-Aug-24 05:33N 35°24' E 139°42'3 2.8
2015-Aug-24 04:28N 35°27' E 139°41'0 0.0
2015-Aug-24 03:31N 35°27' E 139°41'0 0.0
2015-Aug-24 02:31N 35°27' E 139°41'0 0.0
2015-Aug-24 01:31N 35°27' E 139°41'0 0.0
2015-Aug-24 00:31N 35°27' E 139°41'0 0.0
2015-Aug-23 23:31N 35°27' E 139°41'0 0.0
2015-Aug-23 22:31N 35°27' E 139°41'0 0.0
2015-Aug-23 21:31N 35°27' E 139°41'0 0.0
2015-Aug-23 20:31N 35°27' E 139°41'0 0.0
2015-Aug-23 19:31N 35°27' E 139°41'0 0.0
2015-Aug-23 18:31N 35°27' E 139°41'0 0.0
2015-Aug-23 17:31N 35°27' E 139°41'0 0.0
2015-Aug-23 16:31N 35°27' E 139°41'0 0.0
2015-Aug-23 15:31N 35°27' E 139°41'0 0.0
2015-Aug-23 14:31N 35°27' E 139°41'0 0.0
2015-Aug-23 13:31N 35°27' E 139°41'0 0.0
2015-Aug-23 12:31N 35°27' E 139°41'0 0.0
2015-Aug-23 11:31N 35°27' E 139°41'0 0.0
2015-Aug-23 10:31N 35°27' E 139°41'0 0.0
2015-Aug-23 09:31N 35°27' E 139°41'0 0.0
2015-Aug-23 08:31N 35°27' E 139°41'0 0.0
2015-Aug-23 07:31N 35°27' E 139°41'0 0.0
2015-Aug-23 06:31N 35°27' E 139°41'0 0.0
2015-Aug-23 05:31N 35°27' E 139°41'0 0.0
2015-Aug-23 04:28N 35°27' E 139°41'0 0.0
2015-Aug-23 03:31N 35°27' E 139°41'0 0.0
2015-Aug-23 02:31N 35°27' E 139°41'0 0.0
2015-Aug-23 01:31N 35°27' E 139°41'0 0.0
2015-Aug-23 00:31N 35°27' E 139°41'0 0.0
2015-Aug-22 23:31N 35°27' E 139°41'0 0.0
2015-Aug-22 22:31N 35°27' E 139°41'2 2.2
2015-Aug-22 21:33N 35°26' E 139°43'1110.6
2015-Aug-22 20:33N 35°16' E 139°47'1010.0
2015-Aug-22 19:33N 35°06' E 139°45'9 8.7
2015-Aug-22 18:33N 34°58' E 139°42'1211.6
2015-Aug-22 17:33N 34°47' E 139°35'1313.3
2015-Aug-22 16:33N 34°37' E 139°25'  
2015-Aug-20 09:33N 34°01' E 134°58'1212.0
2015-Aug-20 08:32N 34°13' E 134°57'1716.9
2015-Aug-20 07:33N 34°28' E 135°07'1615.7
2015-Aug-20 06:33N 34°41' E 135°18'1 1.3
2015-Aug-20 05:26N 34°42' E 135°17'0 0.0
2015-Aug-20 04:32N 34°42' E 135°17'0 0.0
2015-Aug-20 03:32N 34°42' E 135°17'0 0.0
2015-Aug-20 02:32N 34°42' E 135°17'0 0.0
2015-Aug-20 01:32N 34°42' E 135°17'0 0.0
2015-Aug-20 00:32N 34°42' E 135°17'0 0.0
2015-Aug-19 23:32N 34°42' E 135°17'0 0.0
2015-Aug-19 22:26N 34°42' E 135°17'0 0.0
2015-Aug-19 21:26N 34°42' E 135°17'0 0.0
2015-Aug-19 20:26N 34°42' E 135°17'0 0.0
2015-Aug-19 19:32N 34°42' E 135°17'0 0.0
2015-Aug-19 18:32N 34°42' E 135°17'0 0.0
2015-Aug-19 17:32N 34°42' E 135°17'0 0.0
2015-Aug-19 16:32N 34°42' E 135°17'0 0.0
2015-Aug-19 15:32N 34°42' E 135°17'0 0.0
2015-Aug-19 14:32N 34°42' E 135°17'0 0.0
2015-Aug-19 13:32N 34°42' E 135°17'0 0.0
2015-Aug-19 12:32N 34°42' E 135°17'0 0.0
2015-Aug-19 11:32N 34°42' E 135°17'0 0.0
2015-Aug-19 10:32N 34°42' E 135°17'0 0.0
2015-Aug-19 09:20N 34°42' E 135°17'0 0.0
2015-Aug-19 08:32N 34°42' E 135°17'0 0.0
2015-Aug-19 07:26N 34°42' E 135°17'0 0.0
2015-Aug-19 06:32N 34°42' E 135°17'0 0.0
2015-Aug-19 05:32N 34°42' E 135°17'0 0.0
2015-Aug-19 04:32N 34°42' E 135°17'0 0.0
2015-Aug-19 03:26N 34°42' E 135°17'4 0.1
2015-Aug-17 18:18N 34°38' E 135°18'0 0.0
2015-Aug-17 17:30N 34°38' E 135°18'0 0.0
2015-Aug-17 16:30N 34°38' E 135°18'0 0.0
2015-Aug-17 15:30N 34°38' E 135°18'0 0.0
2015-Aug-17 14:30N 34°38' E 135°18'0 0.0
2015-Aug-17 13:30N 34°38' E 135°18'0 0.0
2015-Aug-17 12:30N 34°38' E 135°18'0 0.1
2015-Aug-17 11:30N 34°38' E 135°18'0 0.0
2015-Aug-17 10:30N 34°38' E 135°18'0 0.0
2015-Aug-17 09:12N 34°38' E 135°18'0 0.1
2015-Aug-17 08:18N 34°38' E 135°18'0 0.1
2015-Aug-17 07:30N 34°38' E 135°18'0 0.1
2015-Aug-17 06:24N 34°38' E 135°18'0 0.1
2015-Aug-17 05:12N 34°38' E 135°18'0 0.0
2015-Aug-17 04:30N 34°38' E 135°18'0 0.0
2015-Aug-17 03:24N 34°38' E 135°18'0 0.0
2015-Aug-17 02:30N 34°38' E 135°18'0 0.0
2015-Aug-17 01:30N 34°38' E 135°18'2 2.4
2015-Aug-17 00:33N 34°36' E 135°17'2317.2
2015-Aug-16 23:12N 34°18' E 134°59'913.7
2015-Aug-16 22:33N 34°09' E 134°60'1311.8
2015-Aug-16 21:29N 33°56' E 134°60'  

Dump ship's entire track history